sensor_id;sensor_type;location;lat;lon;timestamp;pressure;altitude;pressure_sealevel;temperature;humidity
71889;BME280;59762;49.998;14.858;2022-11-20T00:00:52;96961.97;;;-6.15;100.00
71889;BME280;59762;49.998;14.858;2022-11-20T00:03:18;96958.78;;;-6.19;100.00
71889;BME280;59762;49.998;14.858;2022-11-20T00:05:44;96955.03;;;-6.26;100.00
71889;BME280;59762;49.998;14.858;2022-11-20T00:08:10;96953.41;;;-6.27;100.00
71889;BME280;59762;49.998;14.858;2022-11-20T00:10:37;96949.84;;;-6.26;100.00
71889;BME280;59762;49.998;14.858;2022-11-20T00:13:03;96963.53;;;-6.24;100.00
71889;BME280;59762;49.998;14.858;2022-11-20T00:15:29;96964.91;;;-6.20;100.00
71889;BME280;59762;49.998;14.858;2022-11-20T00:17:54;96958.22;;;-6.22;100.00
71889;BME280;59762;49.998;14.858;2022-11-20T00:20:20;96961.63;;;-6.22;100.00
71889;BME280;59762;49.998;14.858;2022-11-20T00:22:47;96962.00;;;-6.26;100.00
71889;BME280;59762;49.998;14.858;2022-11-20T00:25:12;96964.66;;;-6.17;100.00
71889;BME280;59762;49.998;14.858;2022-11-20T00:27:38;96955.84;;;-6.25;100.00
71889;BME280;59762;49.998;14.858;2022-11-20T00:30:05;96966.34;;;-6.27;100.00
71889;BME280;59762;49.998;14.858;2022-11-20T00:32:31;96963.31;;;-6.32;100.00
71889;BME280;59762;49.998;14.858;2022-11-20T00:34:56;96959.31;;;-6.36;100.00
71889;BME280;59762;49.998;14.858;2022-11-20T00:37:22;96969.53;;;-6.35;100.00
71889;BME280;59762;49.998;14.858;2022-11-20T00:39:47;96966.13;;;-6.35;100.00
71889;BME280;59762;49.998;14.858;2022-11-20T00:42:13;96969.31;;;-6.31;100.00
71889;BME280;59762;49.998;14.858;2022-11-20T00:44:39;96967.97;;;-6.15;100.00
71889;BME280;59762;49.998;14.858;2022-11-20T00:47:05;96964.44;;;-6.14;100.00
71889;BME280;59762;49.998;14.858;2022-11-20T00:49:30;96976.16;;;-5.98;100.00
71889;BME280;59762;49.998;14.858;2022-11-20T00:51:56;96976.78;;;-5.85;100.00
71889;BME280;59762;49.998;14.858;2022-11-20T00:54:22;96972.97;;;-5.70;100.00
71889;BME280;59762;49.998;14.858;2022-11-20T00:56:47;96969.47;;;-5.59;100.00
71889;BME280;59762;49.998;14.858;2022-11-20T00:59:13;96968.84;;;-5.51;100.00
71889;BME280;59762;49.998;14.858;2022-11-20T01:01:39;96968.66;;;-5.39;100.00
71889;BME280;59762;49.998;14.858;2022-11-20T01:04:04;96971.91;;;-5.25;100.00
71889;BME280;59762;49.998;14.858;2022-11-20T01:06:33;96970.78;;;-5.23;100.00
71889;BME280;59762;49.998;14.858;2022-11-20T01:09:01;96968.91;;;-5.21;100.00
71889;BME280;59762;49.998;14.858;2022-11-20T01:11:30;96974.28;;;-5.13;100.00
71889;BME280;59762;49.998;14.858;2022-11-20T01:13:57;96962.56;;;-5.07;100.00
71889;BME280;59762;49.998;14.858;2022-11-20T01:16:25;96975.19;;;-4.93;100.00
71889;BME280;59762;49.998;14.858;2022-11-20T01:18:54;96969.09;;;-4.82;100.00
71889;BME280;59762;49.998;14.858;2022-11-20T01:21:23;96974.91;;;-4.69;100.00
71889;BME280;59762;49.998;14.858;2022-11-20T01:23:49;96975.84;;;-4.70;100.00
71889;BME280;59762;49.998;14.858;2022-11-20T01:26:20;96975.44;;;-4.65;100.00
71889;BME280;59762;49.998;14.858;2022-11-20T01:28:46;96967.53;;;-4.64;100.00
71889;BME280;59762;49.998;14.858;2022-11-20T01:31:36;96971.09;;;-4.65;100.00
71889;BME280;59762;49.998;14.858;2022-11-20T01:34:05;96963.66;;;-4.69;100.00
71889;BME280;59762;49.998;14.858;2022-11-20T01:36:33;96960.09;;;-4.78;100.00
71889;BME280;59762;49.998;14.858;2022-11-20T01:39:02;96964.19;;;-4.75;100.00
71889;BME280;59762;49.998;14.858;2022-11-20T01:41:29;96961.75;;;-4.77;100.00
71889;BME280;59762;49.998;14.858;2022-11-20T01:44:16;96963.31;;;-4.65;100.00
71889;BME280;59762;49.998;14.858;2022-11-20T01:46:56;96960.69;;;-4.65;100.00
71889;BME280;59762;49.998;14.858;2022-11-20T01:51:57;96961.78;;;-4.58;100.00
71889;BME280;59762;49.998;14.858;2022-11-20T01:54:35;96955.38;;;-4.53;100.00
71889;BME280;59762;49.998;14.858;2022-11-20T01:57:04;96946.09;;;-4.46;100.00
71889;BME280;59762;49.998;14.858;2022-11-20T01:59:31;96945.41;;;-4.48;100.00
71889;BME280;59762;49.998;14.858;2022-11-20T02:01:59;96946.03;;;-4.66;100.00
71889;BME280;59762;49.998;14.858;2022-11-20T02:04:24;96946.59;;;-4.62;100.00
71889;BME280;59762;49.998;14.858;2022-11-20T02:06:59;96944.31;;;-4.55;100.00
71889;BME280;59762;49.998;14.858;2022-11-20T02:09:25;96937.97;;;-4.63;100.00
71889;BME280;59762;49.998;14.858;2022-11-20T02:11:53;96937.97;;;-4.63;100.00
71889;BME280;59762;49.998;14.858;2022-11-20T02:14:20;96947.16;;;-4.59;100.00
71889;BME280;59762;49.998;14.858;2022-11-20T02:16:47;96936.34;;;-4.64;100.00
71889;BME280;59762;49.998;14.858;2022-11-20T02:19:23;96936.59;;;-4.67;100.00
71889;BME280;59762;49.998;14.858;2022-11-20T02:22:12;96928.47;;;-4.83;100.00
71889;BME280;59762;49.998;14.858;2022-11-20T02:24:41;96933.53;;;-4.91;100.00
71889;BME280;59762;49.998;14.858;2022-11-20T02:27:11;96930.75;;;-4.99;100.00
71889;BME280;59762;49.998;14.858;2022-11-20T02:29:56;96930.16;;;-5.13;100.00
71889;BME280;59762;49.998;14.858;2022-11-20T02:32:31;96926.53;;;-5.21;100.00
71889;BME280;59762;49.998;14.858;2022-11-20T02:34:57;96926.63;;;-5.33;100.00
71889;BME280;59762;49.998;14.858;2022-11-20T02:37:29;96924.66;;;-5.40;100.00
71889;BME280;59762;49.998;14.858;2022-11-20T02:39:55;96929.16;;;-5.42;100.00
71889;BME280;59762;49.998;14.858;2022-11-20T02:42:21;96937.09;;;-5.44;100.00
71889;BME280;59762;49.998;14.858;2022-11-20T02:44:47;96934.34;;;-5.42;100.00
71889;BME280;59762;49.998;14.858;2022-11-20T02:47:12;96924.22;;;-5.45;100.00
71889;BME280;59762;49.998;14.858;2022-11-20T02:49:38;96929.16;;;-5.42;100.00
71889;BME280;59762;49.998;14.858;2022-11-20T02:52:04;96921.00;;;-5.38;100.00
71889;BME280;59762;49.998;14.858;2022-11-20T02:54:29;96919.91;;;-5.35;100.00
71889;BME280;59762;49.998;14.858;2022-11-20T02:56:55;96917.19;;;-5.34;100.00
71889;BME280;59762;49.998;14.858;2022-11-20T02:59:20;96919.22;;;-5.37;100.00
71889;BME280;59762;49.998;14.858;2022-11-20T03:01:46;96925.41;;;-5.28;100.00
71889;BME280;59762;49.998;14.858;2022-11-20T03:04:11;96925.72;;;-5.22;100.00
71889;BME280;59762;49.998;14.858;2022-11-20T03:06:37;96921.06;;;-5.18;100.00
71889;BME280;59762;49.998;14.858;2022-11-20T03:09:03;96920.59;;;-5.33;100.00
71889;BME280;59762;49.998;14.858;2022-11-20T03:11:29;96924.53;;;-5.39;100.00
71889;BME280;59762;49.998;14.858;2022-11-20T03:13:54;96925.59;;;-5.41;100.00
71889;BME280;59762;49.998;14.858;2022-11-20T03:16:21;96925.88;;;-5.44;100.00
71889;BME280;59762;49.998;14.858;2022-11-20T03:18:48;96923.78;;;-5.50;100.00
71889;BME280;59762;49.998;14.858;2022-11-20T03:21:15;96916.56;;;-5.47;100.00
71889;BME280;59762;49.998;14.858;2022-11-20T03:23:41;96918.84;;;-5.53;100.00
71889;BME280;59762;49.998;14.858;2022-11-20T03:26:24;96917.56;;;-5.59;100.00
71889;BME280;59762;49.998;14.858;2022-11-20T03:28:52;96920.88;;;-5.57;100.00
71889;BME280;59762;49.998;14.858;2022-11-20T03:31:20;96920.31;;;-5.61;100.00
71889;BME280;59762;49.998;14.858;2022-11-20T03:33:46;96925.06;;;-5.66;100.00
71889;BME280;59762;49.998;14.858;2022-11-20T03:36:13;96935.44;;;-5.66;100.00
71889;BME280;59762;49.998;14.858;2022-11-20T03:38:40;96933.97;;;-5.59;100.00
71889;BME280;59762;49.998;14.858;2022-11-20T03:41:19;96935.75;;;-5.59;100.00
71889;BME280;59762;49.998;14.858;2022-11-20T03:43:49;96942.47;;;-5.56;100.00
71889;BME280;59762;49.998;14.858;2022-11-20T03:46:15;96944.28;;;-5.47;100.00
71889;BME280;59762;49.998;14.858;2022-11-20T03:48:40;96941.38;;;-5.54;100.00
71889;BME280;59762;49.998;14.858;2022-11-20T03:51:27;96937.97;;;-5.75;100.00
71889;BME280;59762;49.998;14.858;2022-11-20T03:53:55;96939.16;;;-5.79;100.00
71889;BME280;59762;49.998;14.858;2022-11-20T03:56:29;96933.41;;;-5.83;100.00
71889;BME280;59762;49.998;14.858;2022-11-20T03:58:56;96939.78;;;-5.87;100.00
71889;BME280;59762;49.998;14.858;2022-11-20T04:01:24;96932.19;;;-5.79;100.00
71889;BME280;59762;49.998;14.858;2022-11-20T04:03:51;96938.53;;;-5.72;100.00
71889;BME280;59762;49.998;14.858;2022-11-20T04:06:23;96932.44;;;-5.82;100.00
71889;BME280;59762;49.998;14.858;2022-11-20T04:08:49;96926.94;;;-5.89;100.00
71889;BME280;59762;49.998;14.858;2022-11-20T04:11:18;96939.78;;;-5.87;100.00
71889;BME280;59762;49.998;14.858;2022-11-20T04:13:50;96931.25;;;-5.78;100.00
71889;BME280;59762;49.998;14.858;2022-11-20T04:16:17;96939.53;;;-5.63;100.00
71889;BME280;59762;49.998;14.858;2022-11-20T04:18:43;96937.84;;;-5.74;100.00
71889;BME280;59762;49.998;14.858;2022-11-20T04:21:09;96944.66;;;-5.94;100.00
71889;BME280;59762;49.998;14.858;2022-11-20T04:23:35;96931.63;;;-5.82;100.00
71889;BME280;59762;49.998;14.858;2022-11-20T04:26:05;96935.47;;;-5.77;100.00
71889;BME280;59762;49.998;14.858;2022-11-20T04:28:30;96939.22;;;-5.70;100.00
71889;BME280;59762;49.998;14.858;2022-11-20T04:31:02;96932.41;;;-5.71;100.00
71889;BME280;59762;49.998;14.858;2022-11-20T04:33:28;96934.28;;;-5.73;100.00
71889;BME280;59762;49.998;14.858;2022-11-20T04:35:53;96930.91;;;-5.85;100.00
71889;BME280;59762;49.998;14.858;2022-11-20T04:38:19;96925.63;;;-5.83;100.00
71889;BME280;59762;49.998;14.858;2022-11-20T04:40:44;96923.25;;;-5.86;100.00
71889;BME280;59762;49.998;14.858;2022-11-20T04:43:10;96931.94;;;-5.76;100.00
71889;BME280;59762;49.998;14.858;2022-11-20T04:45:36;96925.44;;;-5.70;100.00
71889;BME280;59762;49.998;14.858;2022-11-20T04:48:01;96934.47;;;-5.65;100.00
71889;BME280;59762;49.998;14.858;2022-11-20T04:50:27;96942.41;;;-5.66;100.00
71889;BME280;59762;49.998;14.858;2022-11-20T04:52:52;96940.56;;;-5.54;100.00
71889;BME280;59762;49.998;14.858;2022-11-20T04:55:18;96942.84;;;-5.61;100.00
71889;BME280;59762;49.998;14.858;2022-11-20T04:57:43;96942.47;;;-5.56;100.00
71889;BME280;59762;49.998;14.858;2022-11-20T05:00:09;96943.16;;;-5.54;100.00
71889;BME280;59762;49.998;14.858;2022-11-20T05:02:35;96929.41;;;-5.45;100.00
71889;BME280;59762;49.998;14.858;2022-11-20T05:05:01;96919.78;;;-5.54;100.00
71889;BME280;59762;49.998;14.858;2022-11-20T05:07:26;96909.22;;;-5.42;100.00
71889;BME280;59762;49.998;14.858;2022-11-20T05:09:52;96916.84;;;-5.40;100.00
71889;BME280;59762;49.998;14.858;2022-11-20T05:12:17;96921.69;;;-5.36;100.00
71889;BME280;59762;49.998;14.858;2022-11-20T05:14:43;96907.19;;;-5.38;100.00
71889;BME280;59762;49.998;14.858;2022-11-20T05:17:12;96906.81;;;-5.34;100.00
71889;BME280;59762;49.998;14.858;2022-11-20T05:19:37;96914.63;;;-5.24;100.00
71889;BME280;59762;49.998;14.858;2022-11-20T05:22:04;96906.84;;;-5.24;100.00
71889;BME280;59762;49.998;14.858;2022-11-20T05:24:30;96907.16;;;-5.17;100.00
71889;BME280;59762;49.998;14.858;2022-11-20T05:26:55;96903.28;;;-5.23;100.00
71889;BME280;59762;49.998;14.858;2022-11-20T05:29:21;96900.19;;;-5.17;100.00
71889;BME280;59762;49.998;14.858;2022-11-20T05:31:46;96904.44;;;-5.16;100.00
71889;BME280;59762;49.998;14.858;2022-11-20T05:34:12;96894.88;;;-5.05;100.00
71889;BME280;59762;49.998;14.858;2022-11-20T05:36:37;96885.31;;;-5.05;100.00
71889;BME280;59762;49.998;14.858;2022-11-20T05:39:03;96890.66;;;-5.07;100.00
71889;BME280;59762;49.998;14.858;2022-11-20T05:41:29;96903.56;;;-4.95;100.00
71889;BME280;59762;49.998;14.858;2022-11-20T05:43:56;96899.06;;;-4.84;100.00
71889;BME280;59762;49.998;14.858;2022-11-20T05:46:21;96904.28;;;-4.84;100.00
71889;BME280;59762;49.998;14.858;2022-11-20T05:48:47;96905.91;;;-4.83;100.00
71889;BME280;59762;49.998;14.858;2022-11-20T05:51:16;96901.28;;;-4.79;100.00
71889;BME280;59762;49.998;14.858;2022-11-20T05:53:42;96891.03;;;-4.71;100.00
71889;BME280;59762;49.998;14.858;2022-11-20T05:56:14;96892.56;;;-4.68;100.00
71889;BME280;59762;49.998;14.858;2022-11-20T05:58:40;96887.63;;;-4.71;100.00
71889;BME280;59762;49.998;14.858;2022-11-20T06:01:08;96891.63;;;-4.58;100.00
71889;BME280;59762;49.998;14.858;2022-11-20T06:03:35;96881.34;;;-4.69;100.00
71889;BME280;59762;49.998;14.858;2022-11-20T06:06:01;96875.28;;;-4.79;100.00
71889;BME280;59762;49.998;14.858;2022-11-20T06:08:27;96865.81;;;-4.99;100.00
71889;BME280;59762;49.998;14.858;2022-11-20T06:10:52;96882.63;;;-4.94;100.00
71889;BME280;59762;49.998;14.858;2022-11-20T06:13:18;96888.13;;;-4.87;100.00
71889;BME280;59762;49.998;14.858;2022-11-20T06:15:53;96884.97;;;-4.91;100.00
71889;BME280;59762;49.998;14.858;2022-11-20T06:18:19;96882.63;;;-4.94;100.00
71889;BME280;59762;49.998;14.858;2022-11-20T06:20:45;96885.81;;;-4.80;100.00
71889;BME280;59762;49.998;14.858;2022-11-20T06:23:11;96894.03;;;-4.85;100.00
71889;BME280;59762;49.998;14.858;2022-11-20T06:25:39;96890.47;;;-4.84;100.00
71889;BME280;59762;49.998;14.858;2022-11-20T06:28:05;96888.44;;;-4.80;100.00
71889;BME280;59762;49.998;14.858;2022-11-20T06:30:30;96901.44;;;-4.71;100.00
71889;BME280;59762;49.998;14.858;2022-11-20T06:32:56;96895.03;;;-4.67;100.00
71889;BME280;59762;49.998;14.858;2022-11-20T06:35:21;96893.25;;;-4.57;100.00
71889;BME280;59762;49.998;14.858;2022-11-20T06:37:47;96890.53;;;-4.55;100.00
71889;BME280;59762;49.998;14.858;2022-11-20T06:40:13;96896.16;;;-4.50;100.00
71889;BME280;59762;49.998;14.858;2022-11-20T06:42:38;96897.13;;;-4.41;100.00
71889;BME280;59762;49.998;14.858;2022-11-20T06:45:04;96891.94;;;-4.41;100.00
71889;BME280;59762;49.998;14.858;2022-11-20T06:47:30;96885.78;;;-4.40;100.00
71889;BME280;59762;49.998;14.858;2022-11-20T06:49:55;96884.13;;;-4.41;100.00
71889;BME280;59762;49.998;14.858;2022-11-20T06:52:21;96889.88;;;-4.38;100.00
71889;BME280;59762;49.998;14.858;2022-11-20T06:54:46;96898.09;;;-4.33;100.00
71889;BME280;59762;49.998;14.858;2022-11-20T06:57:12;96895.34;;;-4.31;100.00
71889;BME280;59762;49.998;14.858;2022-11-20T06:59:38;96907.53;;;-4.22;100.00
71889;BME280;59762;49.998;14.858;2022-11-20T07:02:03;96895.75;;;-4.26;100.00
71889;BME280;59762;49.998;14.858;2022-11-20T07:04:29;96906.47;;;-4.19;100.00
71889;BME280;59762;49.998;14.858;2022-11-20T07:06:55;96905.09;;;-4.14;100.00
71889;BME280;59762;49.998;14.858;2022-11-20T07:09:20;96904.13;;;-4.03;100.00
71889;BME280;59762;49.998;14.858;2022-11-20T07:11:46;96892.09;;;-4.04;100.00
71889;BME280;59762;49.998;14.858;2022-11-20T07:14:11;96901.25;;;-4.00;100.00
71889;BME280;59762;49.998;14.858;2022-11-20T07:16:37;96897.56;;;-3.97;100.00
71889;BME280;59762;49.998;14.858;2022-11-20T07:19:02;96893.19;;;-3.97;100.00
71889;BME280;59762;49.998;14.858;2022-11-20T07:21:28;96887.16;;;-3.97;100.00
71889;BME280;59762;49.998;14.858;2022-11-20T07:23:53;96883.88;;;-4.09;100.00
71889;BME280;59762;49.998;14.858;2022-11-20T07:26:19;96873.75;;;-4.02;100.00
71889;BME280;59762;49.998;14.858;2022-11-20T07:28:45;96862.50;;;-3.93;100.00
71889;BME280;59762;49.998;14.858;2022-11-20T07:31:11;96870.16;;;-3.82;100.00
71889;BME280;59762;49.998;14.858;2022-11-20T07:33:38;96877.00;;;-3.81;100.00
71889;BME280;59762;49.998;14.858;2022-11-20T07:36:04;96888.06;;;-3.60;100.00
71889;BME280;59762;49.998;14.858;2022-11-20T07:38:30;96875.22;;;-3.71;100.00
71889;BME280;59762;49.998;14.858;2022-11-20T07:40:56;96886.31;;;-3.69;100.00
71889;BME280;59762;49.998;14.858;2022-11-20T07:43:23;96876.03;;;-3.61;100.00
71889;BME280;59762;49.998;14.858;2022-11-20T07:45:49;96880.13;;;-3.58;100.00
71889;BME280;59762;49.998;14.858;2022-11-20T07:48:15;96895.75;;;-3.58;100.00
71889;BME280;59762;49.998;14.858;2022-11-20T07:50:41;96890.66;;;-3.60;100.00
71889;BME280;59762;49.998;14.858;2022-11-20T07:53:06;96884.03;;;-3.35;100.00
71889;BME280;59762;49.998;14.858;2022-11-20T07:55:32;96882.13;;;-3.42;100.00
71889;BME280;59762;49.998;14.858;2022-11-20T07:57:58;96889.69;;;-3.39;100.00
71889;BME280;59762;49.998;14.858;2022-11-20T08:00:25;96892.81;;;-3.36;100.00
71889;BME280;59762;49.998;14.858;2022-11-20T08:02:51;96894.47;;;-3.35;100.00
71889;BME280;59762;49.998;14.858;2022-11-20T08:05:17;96887.75;;;-3.37;100.00
71889;BME280;59762;49.998;14.858;2022-11-20T08:07:43;96883.59;;;-3.20;100.00
71889;BME280;59762;49.998;14.858;2022-11-20T08:10:11;96880.16;;;-3.21;100.00
71889;BME280;59762;49.998;14.858;2022-11-20T08:12:48;96893.19;;;-3.21;100.00
71889;BME280;59762;49.998;14.858;2022-11-20T08:15:33;96886.88;;;-3.28;100.00
71889;BME280;59762;49.998;14.858;2022-11-20T08:18:04;96898.44;;;-3.31;100.00
71889;BME280;59762;49.998;14.858;2022-11-20T08:20:31;96893.75;;;-3.37;100.00
71889;BME280;59762;49.998;14.858;2022-11-20T08:22:58;96889.41;;;-3.36;100.00
71889;BME280;59762;49.998;14.858;2022-11-20T08:25:25;96889.50;;;-3.28;100.00
71889;BME280;59762;49.998;14.858;2022-11-20T08:27:51;96887.44;;;-3.24;100.00
71889;BME280;59762;49.998;14.858;2022-11-20T08:30:17;96872.06;;;-3.18;100.00
71889;BME280;59762;49.998;14.858;2022-11-20T08:32:42;96884.16;;;-3.26;100.00
71889;BME280;59762;49.998;14.858;2022-11-20T08:35:08;96886.53;;;-3.43;100.00
71889;BME280;59762;49.998;14.858;2022-11-20T08:37:33;96886.38;;;-3.32;100.00
71889;BME280;59762;49.998;14.858;2022-11-20T08:39:59;96877.97;;;-3.25;100.00
71889;BME280;59762;49.998;14.858;2022-11-20T08:42:25;96885.22;;;-3.19;100.00
71889;BME280;59762;49.998;14.858;2022-11-20T08:44:50;96883.34;;;-3.27;100.00
71889;BME280;59762;49.998;14.858;2022-11-20T08:47:16;96881.25;;;-3.23;100.00
71889;BME280;59762;49.998;14.858;2022-11-20T08:49:41;96884.78;;;-3.15;100.00
71889;BME280;59762;49.998;14.858;2022-11-20T08:52:07;96885.28;;;-3.01;100.00
71889;BME280;59762;49.998;14.858;2022-11-20T08:54:32;96874.03;;;-3.02;100.00
71889;BME280;59762;49.998;14.858;2022-11-20T08:56:58;96872.19;;;-3.10;100.00
71889;BME280;59762;49.998;14.858;2022-11-20T08:59:24;96865.53;;;-2.94;100.00
71889;BME280;59762;49.998;14.858;2022-11-20T09:01:49;96859.50;;;-2.95;100.00
71889;BME280;59762;49.998;14.858;2022-11-20T09:04:15;96853.03;;;-2.91;100.00
71889;BME280;59762;49.998;14.858;2022-11-20T09:06:41;96846.66;;;-2.78;100.00
71889;BME280;59762;49.998;14.858;2022-11-20T09:09:07;96851.22;;;-2.63;100.00
71889;BME280;59762;49.998;14.858;2022-11-20T09:11:32;96845.00;;;-2.52;100.00
71889;BME280;59762;49.998;14.858;2022-11-20T09:13:58;96859.34;;;-2.48;100.00
71889;BME280;59762;49.998;14.858;2022-11-20T09:16:23;96856.97;;;-2.41;100.00
71889;BME280;59762;49.998;14.858;2022-11-20T09:18:50;96860.66;;;-2.34;100.00
71889;BME280;59762;49.998;14.858;2022-11-20T09:21:16;96857.72;;;-2.31;100.00
71889;BME280;59762;49.998;14.858;2022-11-20T09:23:42;96841.94;;;-2.47;100.00
71889;BME280;59762;49.998;14.858;2022-11-20T09:26:13;96844.00;;;-2.51;100.00
71889;BME280;59762;49.998;14.858;2022-11-20T09:28:39;96839.38;;;-2.39;100.00
71889;BME280;59762;49.998;14.858;2022-11-20T09:31:21;96843.88;;;-2.32;100.00
71889;BME280;59762;49.998;14.858;2022-11-20T09:33:47;96852.13;;;-2.36;100.00
71889;BME280;59762;49.998;14.858;2022-11-20T09:36:12;96849.78;;;-2.30;100.00
71889;BME280;59762;49.998;14.858;2022-11-20T09:38:38;96845.81;;;-2.16;100.00
71889;BME280;59762;49.998;14.858;2022-11-20T09:41:05;96835.38;;;-2.16;100.00
71889;BME280;59762;49.998;14.858;2022-11-20T09:43:49;96839.69;;;-2.07;100.00
71889;BME280;59762;49.998;14.858;2022-11-20T09:46:24;96839.41;;;-2.04;100.00
71889;BME280;59762;49.998;14.858;2022-11-20T09:49:11;96837.66;;;-2.13;100.00
71889;BME280;59762;49.998;14.858;2022-11-20T09:51:56;96831.63;;;-2.13;100.00
71889;BME280;59762;49.998;14.858;2022-11-20T09:54:37;96830.38;;;-2.09;100.00
71889;BME280;59762;49.998;14.858;2022-11-20T09:57:23;96837.22;;;-1.90;100.00
71889;BME280;59762;49.998;14.858;2022-11-20T09:59:54;96839.69;;;-1.89;100.00
71889;BME280;59762;49.998;14.858;2022-11-20T10:05:02;96811.00;;;-2.07;100.00
71889;BME280;59762;49.998;14.858;2022-11-20T10:07:46;96813.31;;;-2.04;100.00
71889;BME280;59762;49.998;14.858;2022-11-20T10:10:15;96819.25;;;-1.93;100.00
71889;BME280;59762;49.998;14.858;2022-11-20T10:16:01;96810.50;;;-1.84;100.00
71889;BME280;59762;49.998;14.858;2022-11-20T10:21:53;96802.97;;;-1.87;100.00
71889;BME280;59762;49.998;14.858;2022-11-20T10:27:21;96796.81;;;-1.78;100.00
71889;BME280;59762;49.998;14.858;2022-11-20T10:30:01;96791.09;;;-1.82;100.00
71889;BME280;59762;49.998;14.858;2022-11-20T10:32:39;96797.69;;;-1.69;100.00
71889;BME280;59762;49.998;14.858;2022-11-20T10:38:17;96800.53;;;-1.63;100.00
71889;BME280;59762;49.998;14.858;2022-11-20T10:40:46;96787.25;;;-1.43;100.00
71889;BME280;59762;49.998;14.858;2022-11-20T10:43:29;96776.72;;;-1.25;100.00
71889;BME280;59762;49.998;14.858;2022-11-20T10:46:09;96784.66;;;-1.01;100.00
71889;BME280;59762;49.998;14.858;2022-11-20T10:48:36;96791.22;;;-0.97;100.00
71889;BME280;59762;49.998;14.858;2022-11-20T10:51:12;96797.56;;;-0.99;100.00
71889;BME280;59762;49.998;14.858;2022-11-20T10:56:37;96787.44;;;-0.94;100.00
71889;BME280;59762;49.998;14.858;2022-11-20T11:01:45;96771.78;;;-0.86;100.00
71889;BME280;59762;49.998;14.858;2022-11-20T11:04:32;96781.59;;;-0.80;100.00
71889;BME280;59762;49.998;14.858;2022-11-20T11:07:25;96769.38;;;-0.80;100.00
71889;BME280;59762;49.998;14.858;2022-11-20T11:09:54;96760.19;;;-0.92;100.00
71889;BME280;59762;49.998;14.858;2022-11-20T11:12:23;96777.84;;;-0.86;100.00
71889;BME280;59762;49.998;14.858;2022-11-20T11:14:51;96773.69;;;-1.05;100.00
71889;BME280;59762;49.998;14.858;2022-11-20T11:17:23;96782.03;;;-1.01;100.00
71889;BME280;59762;49.998;14.858;2022-11-20T11:22:47;96776.66;;;-0.99;100.00
71889;BME280;59762;49.998;14.858;2022-11-20T11:28:04;96776.44;;;-1.14;100.00
71889;BME280;59762;49.998;14.858;2022-11-20T11:30:42;96763.84;;;-1.19;100.00
71889;BME280;59762;49.998;14.858;2022-11-20T11:33:28;96757.59;;;-0.84;100.00
71889;BME280;59762;49.998;14.858;2022-11-20T11:36:00;96758.59;;;-0.68;100.00
71889;BME280;59762;49.998;14.858;2022-11-20T11:38:40;96754.19;;;-0.52;100.00
71889;BME280;59762;49.998;14.858;2022-11-20T11:41:31;96755.84;;;-0.34;100.00
71889;BME280;59762;49.998;14.858;2022-11-20T11:44:03;96745.22;;;-0.24;100.00
71889;BME280;59762;49.998;14.858;2022-11-20T11:46:59;96740.13;;;-0.18;100.00
71889;BME280;59762;49.998;14.858;2022-11-20T11:49:25;96737.00;;;0.03;100.00
71889;BME280;59762;49.998;14.858;2022-11-20T11:52:02;96737.63;;;0.21;100.00
71889;BME280;59762;49.998;14.858;2022-11-20T11:57:07;96734.38;;;0.11;100.00
71889;BME280;59762;49.998;14.858;2022-11-20T11:59:52;96733.19;;;0.30;100.00
71889;BME280;59762;49.998;14.858;2022-11-20T12:02:34;96721.81;;;-0.10;100.00
71889;BME280;59762;49.998;14.858;2022-11-20T12:05:20;96715.63;;;-0.25;100.00
71889;BME280;59762;49.998;14.858;2022-11-20T12:07:52;96715.47;;;-0.40;100.00
71889;BME280;59762;49.998;14.858;2022-11-20T12:10:23;96731.97;;;-0.39;100.00
71889;BME280;59762;49.998;14.858;2022-11-20T12:12:55;96719.22;;;-0.34;100.00
71889;BME280;59762;49.998;14.858;2022-11-20T12:15:29;96719.53;;;-0.29;100.00
71889;BME280;59762;49.998;14.858;2022-11-20T12:17:56;96707.09;;;-0.19;100.00
71889;BME280;59762;49.998;14.858;2022-11-20T12:20:26;96708.41;;;-0.15;100.00
71889;BME280;59762;49.998;14.858;2022-11-20T12:26:43;96705.78;;;0.02;100.00
71889;BME280;59762;49.998;14.858;2022-11-20T12:40:54;96707.69;;;0.16;100.00
71889;BME280;59762;49.998;14.858;2022-11-20T12:43:27;96706.84;;;0.32;100.00
71889;BME280;59762;49.998;14.858;2022-11-20T12:48:57;96696.41;;;0.15;100.00
71889;BME280;59762;49.998;14.858;2022-11-20T12:51:50;96694.50;;;-0.07;100.00
71889;BME280;59762;49.998;14.858;2022-11-20T12:59:23;96715.94;;;-0.53;100.00
71889;BME280;59762;49.998;14.858;2022-11-20T13:02:14;96720.81;;;-0.74;100.00
71889;BME280;59762;49.998;14.858;2022-11-20T13:07:31;96676.16;;;-0.89;100.00
71889;BME280;59762;49.998;14.858;2022-11-20T13:09:58;96681.25;;;-0.87;100.00
71889;BME280;59762;49.998;14.858;2022-11-20T13:12:36;96690.25;;;-0.73;100.00
71889;BME280;59762;49.998;14.858;2022-11-20T13:15:22;96683.34;;;-0.99;100.00
71889;BME280;59762;49.998;14.858;2022-11-20T13:17:57;96666.19;;;-0.93;100.00
71889;BME280;59762;49.998;14.858;2022-11-20T13:20:24;96663.59;;;-0.77;100.00
71889;BME280;59762;49.998;14.858;2022-11-20T13:22:52;96652.50;;;-0.79;100.00
71889;BME280;59762;49.998;14.858;2022-11-20T13:25:29;96661.34;;;-0.47;100.00
71889;BME280;59762;49.998;14.858;2022-11-20T13:27:56;96658.03;;;-0.41;100.00
71889;BME280;59762;49.998;14.858;2022-11-20T13:30:27;96668.00;;;-0.29;100.00
71889;BME280;59762;49.998;14.858;2022-11-20T13:33:23;96672.59;;;-0.31;100.00
71889;BME280;59762;49.998;14.858;2022-11-20T13:36:02;96665.56;;;-0.30;100.00
71889;BME280;59762;49.998;14.858;2022-11-20T13:38:41;96660.03;;;-0.35;100.00
71889;BME280;59762;49.998;14.858;2022-11-20T13:41:08;96665.91;;;-0.33;100.00
71889;BME280;59762;49.998;14.858;2022-11-20T13:43:52;96658.03;;;-0.41;100.00
71889;BME280;59762;49.998;14.858;2022-11-20T13:46:17;96663.09;;;-0.23;100.00
71889;BME280;59762;49.998;14.858;2022-11-20T13:48:51;96670.44;;;-0.11;100.00